createdAt,value
2019-02-17T00:02:30.234Z,8.50
2019-02-17T00:05:01.126Z,8.47
2019-02-17T00:07:32.138Z,8.45
2019-02-17T00:10:03.044Z,8.47
2019-02-17T00:12:39.027Z,8.43
2019-02-17T00:15:10.668Z,8.40
2019-02-17T00:17:41.616Z,8.36
2019-02-17T00:20:12.537Z,8.33
2019-02-17T00:22:43.515Z,8.32
2019-02-17T00:25:14.415Z,8.28
2019-02-17T00:27:45.344Z,8.25
2019-02-17T00:30:16.253Z,8.22
2019-02-17T00:32:47.202Z,8.19
2019-02-17T00:35:18.104Z,8.16
2019-02-17T00:37:49.054Z,8.14
2019-02-17T00:40:19.956Z,8.13
2019-02-17T00:42:50.889Z,8.13
2019-02-17T00:45:21.848Z,8.12
2019-02-17T00:47:52.785Z,8.12
2019-02-17T00:50:23.702Z,8.14
2019-02-17T00:52:54.693Z,8.13
2019-02-17T00:55:25.599Z,8.13
2019-02-17T00:57:56.537Z,8.10
2019-02-17T01:00:27.505Z,8.10
2019-02-17T01:02:58.448Z,8.08
2019-02-17T01:05:29.355Z,8.07
2019-02-17T01:08:00.361Z,8.08
2019-02-17T01:10:31.267Z,8.06
2019-02-17T01:13:02.225Z,8.04
2019-02-17T01:15:33.131Z,8.04
2019-02-17T01:18:04.054Z,8.03
2019-02-17T01:20:35.765Z,8.02
2019-02-17T01:23:12.102Z,8.00
2019-02-17T01:25:45.321Z,7.98
2019-02-17T01:28:16.249Z,7.99
2019-02-17T01:30:47.143Z,7.99
2019-02-17T01:33:18.145Z,8.02
2019-02-17T01:35:49.046Z,8.01
2019-02-17T01:38:20.029Z,8.00
2019-02-17T01:40:50.931Z,7.99
2019-02-17T01:43:21.893Z,8.02
2019-02-17T01:45:55.487Z,7.98
2019-02-17T01:48:26.409Z,8.02
2019-02-17T01:50:57.319Z,7.99
2019-02-17T01:53:31.319Z,7.95
2019-02-17T01:56:02.217Z,7.95
2019-02-17T01:58:33.152Z,7.94
2019-02-17T02:01:04.169Z,7.94
2019-02-17T02:03:37.766Z,7.94
2019-02-17T02:06:08.664Z,7.92
2019-02-17T02:08:39.606Z,7.92
2019-02-17T02:11:13.584Z,7.92
2019-02-17T02:13:44.612Z,7.93
2019-02-17T02:16:15.518Z,7.94
2019-02-17T02:18:50.996Z,7.94
2019-02-17T02:21:22.850Z,7.94
2019-02-17T02:23:53.779Z,7.99
2019-02-17T02:26:24.682Z,8.06
2019-02-17T02:28:55.623Z,8.14
2019-02-17T02:31:30.701Z,8.16
2019-02-17T02:34:03.228Z,8.22
2019-02-17T02:36:34.130Z,8.28
2019-02-17T02:39:07.847Z,8.32
2019-02-17T02:41:38.751Z,8.38
2019-02-17T02:44:12.152Z,8.38
2019-02-17T02:46:43.129Z,8.37
2019-02-17T02:49:14.124Z,8.35
2019-02-17T02:51:45.027Z,8.36
2019-02-17T02:54:16.061Z,8.35
2019-02-17T02:56:46.962Z,8.35
2019-02-17T02:59:17.900Z,8.30
2019-02-17T03:01:54.257Z,8.28
2019-02-17T03:04:21.512Z,8.23
2019-02-17T03:06:56.988Z,8.24
2019-02-17T03:09:27.937Z,8.23
2019-02-17T03:12:00.359Z,8.24
2019-02-17T03:14:31.286Z,8.23
2019-02-17T03:17:02.187Z,8.23
2019-02-17T03:19:33.130Z,8.21
2019-02-17T03:22:04.099Z,8.23
2019-02-17T03:24:35.046Z,8.23
2019-02-17T03:27:05.958Z,8.22
2019-02-17T03:29:36.889Z,8.24
2019-02-17T03:32:07.869Z,8.27
2019-02-17T03:34:38.801Z,8.28
2019-02-17T03:37:09.761Z,8.30
2019-02-17T03:39:41.216Z,8.29
2019-02-17T03:42:12.130Z,8.29
2019-02-17T03:44:43.141Z,8.29
2019-02-17T03:47:14.033Z,8.25
2019-02-17T03:49:44.966Z,8.26
2019-02-17T03:52:15.864Z,8.23
2019-02-17T03:54:48.379Z,8.20
2019-02-17T03:57:20.873Z,8.18
2019-02-17T03:59:51.826Z,8.16
2019-02-17T04:02:22.795Z,8.15
2019-02-17T04:04:53.723Z,8.14
2019-02-17T04:07:24.627Z,8.14
2019-02-17T04:09:55.571Z,8.13
2019-02-17T04:12:26.490Z,8.15
2019-02-17T04:14:57.416Z,8.14
2019-02-17T04:17:28.446Z,8.14
2019-02-17T04:19:59.375Z,8.10
2019-02-17T04:22:30.273Z,8.09
2019-02-17T04:25:01.258Z,8.08
2019-02-17T04:27:32.157Z,8.09
2019-02-17T04:30:03.306Z,8.10
2019-02-17T04:32:34.216Z,8.08
2019-02-17T04:35:05.455Z,8.05
2019-02-17T04:37:36.357Z,8.03
2019-02-17T04:40:07.703Z,8.01
2019-02-17T04:42:38.604Z,7.96
2019-02-17T04:45:09.529Z,7.93
2019-02-17T04:47:41.957Z,7.90
2019-02-17T04:50:12.901Z,7.90
2019-02-17T04:52:43.817Z,7.90
2019-02-17T04:55:14.758Z,7.90
2019-02-17T04:57:45.673Z,7.89
2019-02-17T05:00:17.691Z,7.95
2019-02-17T05:02:48.557Z,7.96
2019-02-17T05:05:19.477Z,8.00
2019-02-17T05:07:59.215Z,8.03
2019-02-17T05:10:33.122Z,8.09
2019-02-17T05:13:04.015Z,8.12
2019-02-17T05:15:34.977Z,8.15
2019-02-17T05:18:07.531Z,8.17
2019-02-17T05:20:38.480Z,8.19
2019-02-17T05:23:10.296Z,8.21
2019-02-17T05:25:41.256Z,8.22
2019-02-17T05:28:12.158Z,8.23
2019-02-17T05:30:52.124Z,8.25
2019-02-17T05:33:15.697Z,8.31
2019-02-17T05:35:46.633Z,8.33
2019-02-17T05:38:17.542Z,8.36
2019-02-17T05:40:48.501Z,8.37
2019-02-17T05:43:19.410Z,8.37
2019-02-17T05:45:51.933Z,8.37
2019-02-17T05:48:22.843Z,8.36
2019-02-17T05:50:53.779Z,8.37
2019-02-17T05:53:24.693Z,8.39
2019-02-17T05:55:57.226Z,8.39
2019-02-17T05:58:28.206Z,8.41
2019-02-17T06:01:04.130Z,8.42
2019-02-17T06:03:34.263Z,8.43
2019-02-17T06:06:08.130Z,8.47
2019-02-17T06:08:39.029Z,8.48
2019-02-17T06:11:10.003Z,8.49
2019-02-17T06:13:40.910Z,8.49
2019-02-17T06:16:16.260Z,8.48
2019-02-17T06:18:49.598Z,8.42
2019-02-17T06:21:20.531Z,8.40
2019-02-17T06:23:54.229Z,8.39
2019-02-17T06:26:25.194Z,8.38
2019-02-17T06:28:56.103Z,8.39
2019-02-17T06:31:27.042Z,8.39
2019-02-17T06:33:59.581Z,8.39
2019-02-17T06:36:30.516Z,8.37
2019-02-17T06:39:01.418Z,8.38
2019-02-17T06:41:32.383Z,8.36
2019-02-17T06:44:03.295Z,8.34
2019-02-17T06:46:35.891Z,8.33
2019-02-17T06:49:06.778Z,8.30
2019-02-17T06:51:37.712Z,8.32
2019-02-17T06:54:08.606Z,8.33
2019-02-17T06:56:43.911Z,8.33
2019-02-17T06:59:14.821Z,8.35
2019-02-17T07:01:45.826Z,8.42
2019-02-17T07:04:16.728Z,8.46
2019-02-17T07:06:49.305Z,8.54
2019-02-17T07:09:20.201Z,8.65
2019-02-17T07:11:52.681Z,8.73
2019-02-17T07:14:23.573Z,8.77
2019-02-17T07:16:54.505Z,8.83
2019-02-17T07:19:25.418Z,8.88
2019-02-17T07:21:56.342Z,8.92
2019-02-17T07:24:27.251Z,8.96
2019-02-17T07:27:00.057Z,9.00
2019-02-17T07:29:35.708Z,9.07
2019-02-17T07:32:06.362Z,9.04
2019-02-17T07:34:40.222Z,9.09
2019-02-17T07:37:11.155Z,9.15
2019-02-17T07:39:42.064Z,9.17
2019-02-17T07:42:13.295Z,9.22
2019-02-17T07:44:44.198Z,9.22
2019-02-17T07:47:15.131Z,9.23
2019-02-17T07:49:46.024Z,9.27
2019-02-17T07:52:16.962Z,9.31
2019-02-17T07:54:55.377Z,9.35
2019-02-17T07:57:23.312Z,9.36
2019-02-17T07:59:54.227Z,9.35
2019-02-17T08:02:25.153Z,9.38
2019-02-17T08:04:56.057Z,9.39
2019-02-17T08:07:26.979Z,9.39
2019-02-17T08:09:57.895Z,9.42
2019-02-17T08:12:28.897Z,9.43
2019-02-17T08:14:59.803Z,9.45
2019-02-17T08:17:30.741Z,9.43
2019-02-17T08:20:02.141Z,9.43
2019-02-17T08:22:33.052Z,9.44
2019-02-17T08:25:04.551Z,9.45
2019-02-17T08:27:35.522Z,9.41
2019-02-17T08:30:09.402Z,9.40
2019-02-17T08:32:40.332Z,9.44
2019-02-17T08:35:11.233Z,9.43
2019-02-17T08:37:42.277Z,9.36
2019-02-17T08:40:13.215Z,9.34
2019-02-17T08:42:47.138Z,9.38
2019-02-17T08:45:18.030Z,9.41
2019-02-17T08:47:48.966Z,9.44
2019-02-17T08:50:20.180Z,9.45
2019-02-17T08:52:51.274Z,9.49
2019-02-17T08:55:22.175Z,9.48
2019-02-17T08:57:55.935Z,9.54
2019-02-17T09:00:26.909Z,9.50
2019-02-17T09:02:57.833Z,9.53
2019-02-17T09:05:30.203Z,9.55
2019-02-17T09:08:01.226Z,9.54
2019-02-17T09:10:32.282Z,9.59
2019-02-17T09:13:03.359Z,9.65
2019-02-17T09:15:35.208Z,9.60
2019-02-17T09:18:06.170Z,9.62
2019-02-17T09:20:39.957Z,9.69
2019-02-17T09:23:12.571Z,9.72
2019-02-17T09:25:43.567Z,9.65
2019-02-17T09:28:14.647Z,9.70
2019-02-17T09:30:47.133Z,9.75
2019-02-17T09:33:18.078Z,9.72
2019-02-17T09:35:48.989Z,9.81
2019-02-17T09:38:19.897Z,9.82
2019-02-17T09:40:53.755Z,9.90
2019-02-17T09:43:24.725Z,9.93
2019-02-17T09:45:55.618Z,9.96
2019-02-17T09:48:26.539Z,9.97
2019-02-17T09:50:57.445Z,10.05
2019-02-17T09:53:28.395Z,10.12
2019-02-17T09:56:00.186Z,10.20
2019-02-17T09:58:31.139Z,10.24
2019-02-17T10:01:02.054Z,10.26
2019-02-17T10:03:32.987Z,10.21
2019-02-17T10:06:03.894Z,10.17
2019-02-17T10:08:34.834Z,10.14
2019-02-17T10:11:05.820Z,10.13
2019-02-17T10:13:39.725Z,10.17
2019-02-17T10:16:10.629Z,10.14
2019-02-17T10:18:41.572Z,10.18
2019-02-17T10:21:12.474Z,10.18
2019-02-17T10:23:43.418Z,10.12
2019-02-17T10:26:14.327Z,10.05
2019-02-17T10:28:45.290Z,10.06
2019-02-17T10:31:16.203Z,10.06
2019-02-17T10:33:47.131Z,10.07
2019-02-17T10:36:18.053Z,10.09
2019-02-17T10:38:49.002Z,10.16
2019-02-17T10:41:19.924Z,10.19
2019-02-17T10:43:50.891Z,10.15
2019-02-17T10:46:21.804Z,10.06
2019-02-17T10:48:52.734Z,10.12
2019-02-17T10:51:23.651Z,10.21
2019-02-17T10:53:54.587Z,10.27
2019-02-17T10:56:25.494Z,10.29
2019-02-17T10:58:56.492Z,10.26
2019-02-17T11:01:27.398Z,10.33
2019-02-17T11:04:03.714Z,10.34
2019-02-17T11:06:34.637Z,10.44
2019-02-17T11:09:08.520Z,10.44
2019-02-17T11:11:39.438Z,10.33
2019-02-17T11:14:10.397Z,10.38
2019-02-17T11:16:41.377Z,10.41
2019-02-17T11:19:12.320Z,10.44
2019-02-17T11:21:43.235Z,10.43
2019-02-17T11:24:14.172Z,10.42
2019-02-17T11:26:45.157Z,10.43
2019-02-17T11:29:16.223Z,10.47
2019-02-17T11:31:47.127Z,10.47
2019-02-17T11:34:18.087Z,10.50
2019-02-17T11:36:49.032Z,10.52
2019-02-17T11:39:20.154Z,10.57
2019-02-17T11:41:51.083Z,10.58
2019-02-17T11:44:22.036Z,10.64
2019-02-17T11:46:52.952Z,10.70
2019-02-17T11:49:23.892Z,10.64
2019-02-17T11:51:54.816Z,10.59
2019-02-17T11:54:25.762Z,10.56
2019-02-17T11:56:56.739Z,10.50
2019-02-17T11:59:27.694Z,10.53
2019-02-17T12:01:58.600Z,10.47
2019-02-17T12:04:29.604Z,10.40
2019-02-17T12:07:00.583Z,10.40
2019-02-17T12:09:31.584Z,10.42
2019-02-17T12:12:04.098Z,10.39
2019-02-17T12:14:35.067Z,10.41
2019-02-17T12:17:05.972Z,10.49
2019-02-17T12:19:36.922Z,10.51
2019-02-17T12:22:12.185Z,10.51
2019-02-17T12:24:46.005Z,10.52
2019-02-17T12:27:21.795Z,10.50
2019-02-17T12:29:54.338Z,10.53
2019-02-17T12:32:26.885Z,10.59
2019-02-17T12:35:02.199Z,10.62
2019-02-17T12:37:33.114Z,10.71
2019-02-17T12:40:05.367Z,10.68
2019-02-17T12:42:36.617Z,10.70
2019-02-17T12:45:10.571Z,10.71
2019-02-17T12:47:41.482Z,10.74
2019-02-17T12:50:12.731Z,10.62
2019-02-17T12:52:47.065Z,10.64
2019-02-17T12:55:16.299Z,10.62
2019-02-17T12:57:47.220Z,10.54
2019-02-17T13:00:18.783Z,10.46
2019-02-17T13:02:49.691Z,10.40
2019-02-17T13:05:20.630Z,10.31
2019-02-17T13:07:51.532Z,10.31
2019-02-17T13:10:22.487Z,10.26
2019-02-17T13:12:53.393Z,10.21
2019-02-17T13:15:24.349Z,10.16
2019-02-17T13:17:55.259Z,10.06
2019-02-17T13:20:26.207Z,10.01
2019-02-17T13:22:57.132Z,9.92
2019-02-17T13:25:28.066Z,9.85
2019-02-17T13:28:00.615Z,9.76
2019-02-17T13:30:31.887Z,9.67
2019-02-17T13:33:02.773Z,9.60
2019-02-17T13:35:33.705Z,9.52
2019-02-17T13:38:04.609Z,9.52
2019-02-17T13:40:35.545Z,9.45
2019-02-17T13:43:06.450Z,9.45
2019-02-17T13:45:37.497Z,9.40
2019-02-17T13:48:14.094Z,9.43
2019-02-17T13:50:45.031Z,9.39
2019-02-17T13:53:17.399Z,9.42
2019-02-17T13:55:48.337Z,9.44
2019-02-17T13:58:19.233Z,9.47
2019-02-17T14:00:50.178Z,9.49
2019-02-17T14:03:21.081Z,9.50
2019-02-17T14:05:52.063Z,9.56
2019-02-17T14:08:25.640Z,9.60
2019-02-17T14:10:56.597Z,9.64
2019-02-17T14:13:27.496Z,9.64
2019-02-17T14:15:58.461Z,9.66
2019-02-17T14:18:29.366Z,9.64
2019-02-17T14:21:00.293Z,9.66
2019-02-17T14:23:31.248Z,9.63
2019-02-17T14:26:02.172Z,9.60
2019-02-17T14:28:33.889Z,9.60
2019-02-17T14:31:06.365Z,9.61
2019-02-17T14:33:40.347Z,9.59
2019-02-17T14:36:14.364Z,9.60
2019-02-17T14:38:45.266Z,9.56
2019-02-17T14:41:16.210Z,9.56
2019-02-17T14:43:47.108Z,9.54
2019-02-17T14:46:18.056Z,9.56
2019-02-17T14:48:48.961Z,9.56
2019-02-17T14:51:19.894Z,9.57
2019-02-17T14:53:50.794Z,9.58
2019-02-17T14:56:21.727Z,9.51
2019-02-17T14:58:52.631Z,9.44
2019-02-17T15:01:23.664Z,9.43
2019-02-17T15:03:54.575Z,9.40
2019-02-17T15:06:25.504Z,9.39
2019-02-17T15:08:56.404Z,9.37
2019-02-17T15:11:27.336Z,9.32
2019-02-17T15:13:58.242Z,9.28
2019-02-17T15:16:29.313Z,9.21
2019-02-17T15:19:00.600Z,9.18
2019-02-17T15:21:31.538Z,9.12
2019-02-17T15:24:02.453Z,9.07
2019-02-17T15:26:33.374Z,9.02
2019-02-17T15:29:04.283Z,8.95
2019-02-17T15:31:35.235Z,8.94
2019-02-17T15:34:06.133Z,8.84
2019-02-17T15:36:37.063Z,8.81
2019-02-17T15:39:08.277Z,8.80
2019-02-17T15:41:42.157Z,8.76
2019-02-17T15:44:14.721Z,8.78
2019-02-17T15:46:45.856Z,8.75
2019-02-17T15:49:18.601Z,8.66
2019-02-17T15:51:49.464Z,8.62
2019-02-17T15:54:20.361Z,8.63
2019-02-17T15:56:55.834Z,8.61
2019-02-17T15:59:26.738Z,8.48
2019-02-17T16:01:57.675Z,8.54
2019-02-17T16:04:28.937Z,8.55
2019-02-17T16:06:59.983Z,8.53
2019-02-17T16:09:30.892Z,8.47
2019-02-17T16:12:01.813Z,8.49
2019-02-17T16:14:32.731Z,8.46
2019-02-17T16:17:03.697Z,8.48
2019-02-17T16:19:34.675Z,8.45
2019-02-17T16:22:05.603Z,8.41
2019-02-17T16:24:36.531Z,8.37
2019-02-17T16:27:07.466Z,8.41
2019-02-17T16:29:38.374Z,8.42
2019-02-17T16:32:09.338Z,8.44
2019-02-17T16:34:40.246Z,8.41
2019-02-17T16:37:11.174Z,8.42
2019-02-17T16:39:42.083Z,8.41
2019-02-17T16:42:13.012Z,8.42
2019-02-17T16:44:43.913Z,8.38
2019-02-17T16:47:14.873Z,8.38
2019-02-17T16:49:45.777Z,8.39
2019-02-17T16:52:16.705Z,8.40
2019-02-17T16:54:47.596Z,8.35
2019-02-17T16:57:18.524Z,8.37
2019-02-17T16:59:49.423Z,8.39
2019-02-17T17:02:20.379Z,8.39
2019-02-17T17:04:51.281Z,8.43
2019-02-17T17:07:22.217Z,8.46
2019-02-17T17:09:53.183Z,8.43
2019-02-17T17:12:24.911Z,8.45
2019-02-17T17:14:55.895Z,8.45
2019-02-17T17:17:26.871Z,8.37
2019-02-17T17:19:57.848Z,8.41
2019-02-17T17:22:28.862Z,8.42
2019-02-17T17:24:59.866Z,8.42
2019-02-17T17:27:30.796Z,8.43
2019-02-17T17:30:03.467Z,8.40
2019-02-17T17:32:34.526Z,8.43
2019-02-17T17:35:07.528Z,8.41
2019-02-17T17:37:39.075Z,8.39
2019-02-17T17:40:17.527Z,8.38
2019-02-17T17:42:51.156Z,8.35
2019-02-17T17:45:22.647Z,8.35
2019-02-17T17:47:53.599Z,8.32
2019-02-17T17:50:24.498Z,8.31
2019-02-17T17:52:55.436Z,8.33
2019-02-17T17:55:28.436Z,8.33
2019-02-17T17:57:58.964Z,8.33
2019-02-17T18:00:31.508Z,8.32
2019-02-17T18:03:02.608Z,8.30
2019-02-17T18:05:33.509Z,8.26
2019-02-17T18:08:04.519Z,8.25
2019-02-17T18:10:35.481Z,8.18
2019-02-17T18:13:06.413Z,8.15
2019-02-17T18:15:40.255Z,8.08
2019-02-17T18:18:11.229Z,8.02
2019-02-17T18:20:42.139Z,8.00
2019-02-17T18:23:14.593Z,7.97
2019-02-17T18:25:45.493Z,7.90
2019-02-17T18:28:16.431Z,7.88
2019-02-17T18:30:47.337Z,7.86
2019-02-17T18:33:18.304Z,7.82
2019-02-17T18:35:49.210Z,7.84
2019-02-17T18:38:20.149Z,7.82
2019-02-17T18:40:51.050Z,7.79
2019-02-17T18:43:21.987Z,7.83
2019-02-17T18:45:52.887Z,7.84
2019-02-17T18:48:23.865Z,7.79
2019-02-17T18:50:59.109Z,7.78
2019-02-17T18:53:27.400Z,7.81
2019-02-17T18:55:58.307Z,7.80
2019-02-17T18:58:29.253Z,7.78
2019-02-17T19:01:00.213Z,7.77
2019-02-17T19:03:31.203Z,7.75
2019-02-17T19:06:02.109Z,7.68
2019-02-17T19:08:33.056Z,7.62
2019-02-17T19:11:03.958Z,7.62
2019-02-17T19:13:34.904Z,7.58
2019-02-17T19:16:05.807Z,7.54
2019-02-17T19:18:36.775Z,7.49
2019-02-17T19:21:07.673Z,7.46
2019-02-17T19:23:38.601Z,7.43
2019-02-17T19:26:09.522Z,7.40
2019-02-17T19:28:40.452Z,7.37
2019-02-17T19:31:11.493Z,7.35
2019-02-17T19:33:45.576Z,7.33
2019-02-17T19:36:16.500Z,7.31
2019-02-17T19:38:47.430Z,7.29
2019-02-17T19:41:18.324Z,7.33
2019-02-17T19:43:51.953Z,7.33
2019-02-17T19:46:22.857Z,7.37
2019-02-17T19:48:53.818Z,7.41
2019-02-17T19:51:24.726Z,7.46
2019-02-17T19:53:55.735Z,7.46
2019-02-17T19:56:26.637Z,7.49
2019-02-17T19:58:57.580Z,7.47
2019-02-17T20:01:28.547Z,7.43
2019-02-17T20:04:19.428Z,7.40
2019-02-17T20:06:50.399Z,7.37
2019-02-17T20:09:21.335Z,7.34
2019-02-17T20:11:52.501Z,7.30
2019-02-17T20:14:24.141Z,7.27
2019-02-17T20:16:55.039Z,7.26
2019-02-17T20:19:26.013Z,7.25
2019-02-17T20:21:56.907Z,7.22
2019-02-17T20:24:27.833Z,7.18
2019-02-17T20:26:58.736Z,7.18
2019-02-17T20:29:29.665Z,7.19
2019-02-17T20:32:00.716Z,7.17
2019-02-17T20:34:31.687Z,7.21
2019-02-17T20:37:02.588Z,7.23
2019-02-17T20:39:33.517Z,7.27
2019-02-17T20:42:04.426Z,7.31
2019-02-17T20:44:35.363Z,7.27
2019-02-17T20:47:06.264Z,7.24
2019-02-17T20:49:40.150Z,7.25
2019-02-17T20:52:11.468Z,7.24
2019-02-17T20:54:42.399Z,7.21
2019-02-17T20:57:13.329Z,7.22
2019-02-17T20:59:44.240Z,7.23
2019-02-17T21:02:15.135Z,7.24
2019-02-17T21:04:46.454Z,7.22
2019-02-17T21:07:17.353Z,7.23
2019-02-17T21:09:48.296Z,7.26
2019-02-17T21:12:19.275Z,7.23
2019-02-17T21:14:50.215Z,7.26
2019-02-17T21:17:21.116Z,7.27
2019-02-17T21:19:52.182Z,7.28
2019-02-17T21:22:23.765Z,7.29
2019-02-17T21:24:55.459Z,7.29
2019-02-17T21:27:26.383Z,7.26
2019-02-17T21:29:57.309Z,7.25
2019-02-17T21:32:28.211Z,7.22
2019-02-17T21:34:59.165Z,7.19
2019-02-17T21:37:30.071Z,7.16
2019-02-17T21:40:01.010Z,7.13
2019-02-17T21:42:31.916Z,7.08
2019-02-17T21:45:02.843Z,7.07
2019-02-17T21:47:33.746Z,7.04
2019-02-17T21:50:07.392Z,7.00
2019-02-17T21:52:38.295Z,6.94
2019-02-17T21:55:10.523Z,6.88
2019-02-17T21:57:41.510Z,6.86
2019-02-17T22:00:20.031Z,6.82
2019-02-17T22:02:50.934Z,6.77
2019-02-17T22:05:21.901Z,6.73
2019-02-17T22:07:52.807Z,6.72
2019-02-17T22:10:26.681Z,6.64
2019-02-17T22:12:59.231Z,6.57
2019-02-17T22:15:32.866Z,6.55
2019-02-17T22:18:03.772Z,6.49
2019-02-17T22:20:34.761Z,6.44
2019-02-17T22:23:05.660Z,6.42
2019-02-17T22:25:37.094Z,6.38
2019-02-17T22:28:08.020Z,6.34
2019-02-17T22:30:38.941Z,6.33
2019-02-17T22:33:09.848Z,6.28
2019-02-17T22:35:43.340Z,6.29
2019-02-17T22:38:14.332Z,6.27
2019-02-17T22:40:45.269Z,6.24
2019-02-17T22:43:16.168Z,6.19
2019-02-17T22:45:47.104Z,6.19
2019-02-17T22:48:18.008Z,6.15
2019-02-17T22:50:48.982Z,6.11
2019-02-17T22:53:19.886Z,6.07
2019-02-17T22:55:50.818Z,6.03
2019-02-17T22:58:21.729Z,5.99
2019-02-17T23:01:00.167Z,5.96
2019-02-17T23:03:31.483Z,5.95
2019-02-17T23:06:02.558Z,5.91
2019-02-17T23:08:33.571Z,5.86
2019-02-17T23:11:06.128Z,5.82
2019-02-17T23:13:38.135Z,5.83
2019-02-17T23:16:10.556Z,5.81
2019-02-17T23:18:41.464Z,5.78
2019-02-17T23:21:12.423Z,5.77
2019-02-17T23:23:44.976Z,5.76
2019-02-17T23:26:18.943Z,5.76
2019-02-17T23:28:49.846Z,5.78
2019-02-17T23:31:25.268Z,5.83
2019-02-17T23:33:56.179Z,5.88
2019-02-17T23:36:27.202Z,5.92
2019-02-17T23:38:58.104Z,5.96
2019-02-17T23:41:31.572Z,6.03
2019-02-17T23:44:01.643Z,6.12
2019-02-17T23:46:32.586Z,6.16
2019-02-17T23:49:03.482Z,6.23
2019-02-17T23:51:37.450Z,6.27
2019-02-17T23:54:08.354Z,6.30
2019-02-17T23:56:39.298Z,6.33
2019-02-17T23:59:11.853Z,6.35
